createdAt,value
2024-05-09T08:39:38.220Z,3.55
2024-05-09T08:42:08.093Z,4.68
2024-05-09T11:15:42.191Z,6.53
2024-05-09T11:18:24.959Z,6.28
2024-05-09T11:20:53.726Z,5.68
2024-05-09T11:23:26.314Z,5.70
2024-05-09T11:25:58.006Z,6.25
2024-05-09T11:28:28.605Z,5.88
2024-05-09T11:31:07.784Z,6.38
2024-05-09T11:33:44.121Z,6.63
2024-05-09T11:36:11.875Z,5.93
2024-05-09T11:38:39.132Z,7.00
2024-05-09T11:41:07.201Z,6.18
2024-05-09T11:43:34.419Z,5.88
2024-05-09T11:46:03.568Z,6.38
2024-05-09T11:48:31.799Z,6.28
2024-05-09T11:50:59.262Z,5.97
2024-05-09T11:53:26.429Z,6.13
2024-05-09T11:55:53.785Z,6.55
2024-05-09T11:58:23.001Z,6.03
2024-05-09T12:00:50.615Z,9.93
2024-05-09T12:03:17.961Z,7.05
2024-05-09T12:05:45.556Z,8.77
2024-05-09T12:08:13.146Z,9.60
2024-05-09T12:10:40.402Z,8.35
2024-05-09T12:13:08.135Z,9.43
2024-05-09T12:15:39.209Z,8.60
2024-05-09T12:18:08.069Z,7.43
2024-05-09T12:20:38.640Z,8.48
2024-05-09T12:23:10.016Z,8.60
2024-05-09T12:25:39.686Z,8.70
2024-05-09T12:28:08.011Z,9.35
2024-05-09T12:30:39.793Z,7.88
2024-05-09T12:33:09.656Z,7.13
2024-05-09T12:35:37.091Z,7.45
2024-05-09T12:38:04.828Z,7.73
2024-05-09T12:40:36.727Z,8.50
2024-05-09T12:43:08.450Z,8.30
2024-05-09T12:45:37.003Z,7.38
2024-05-09T12:48:07.532Z,10.30
